Time;durP1;ratioP1;P1;durP2;ratioP2;P2;SDS_P1;SDS_P2;PMS_P1;PMS_P2;Temp;Humidity;BMP_temperature;BMP_pressure;BME280_temperature;BME280_humidity;BME280_pressure;Samples;Min_cycle;Max_cycle;Signal;HPM_P1;HPM_P2
2021/01/04 00:00:05;;;;;;;34.80;18.48;;;-0.90;99.90;;;;;;2047603;28;20201;-70
2021/01/04 00:01:40;;;;;;;32.30;17.58;;;-0.90;99.90;;;;;;2066582;28;20188;-69
2021/01/04 00:03:23;;;;;;;37.38;18.95;;;-1.00;99.90;;;;;;2085680;28;20238;-69
2021/01/04 00:04:52;;;;;;;38.58;18.90;;;-1.00;99.90;;;;;;2080086;28;20165;-71
2021/01/04 00:06:20;;;;;;;33.03;18.35;;;-1.00;99.90;;;;;;2071774;28;20172;-68
2021/01/04 00:07:56;;;;;;;33.95;18.25;;;-1.00;99.90;;;;;;2083222;28;20190;-67
2021/01/04 00:09:07;;;;;;;34.65;18.90;;;-1.00;99.90;;;;;;2068488;28;20259;-69
2021/01/04 00:10:26;;;;;;;40.00;20.65;;;-0.90;99.90;;;;;;2071576;28;20174;-68
2021/01/04 00:11:41;;;;;;;40.17;20.60;;;-0.90;99.90;;;;;;2065490;28;20178;-68
2021/01/04 00:12:56;;;;;;;40.75;19.95;;;-0.90;99.90;;;;;;2072415;28;20266;-67
2021/01/04 00:14:42;;;;;;;40.47;20.48;;;-1.00;99.90;;;;;;2081552;28;20681;-67
2021/01/04 00:15:53;;;;;;;34.10;19.38;;;-1.10;99.90;;;;;;2056370;28;20193;-69
2021/01/04 00:17:37;;;;;;;41.95;20.65;;;-1.10;99.90;;;;;;2066411;28;20512;-69
2021/01/04 00:19:05;;;;;;;36.90;18.88;;;-1.00;99.90;;;;;;2075593;28;20551;-68
2021/01/04 00:20:21;;;;;;;44.53;21.05;;;-1.00;99.90;;;;;;2081030;28;20183;-68
2021/01/04 00:21:46;;;;;;;37.58;20.17;;;-1.10;99.90;;;;;;2081763;28;20176;-69
2021/01/04 00:23:02;;;;;;;36.15;18.85;;;-1.10;99.90;;;;;;2081265;28;20304;-68
2021/01/04 00:24:25;;;;;;;40.85;20.30;;;-1.00;99.90;;;;;;2079109;28;20192;-69
2021/01/04 00:25:47;;;;;;;40.10;20.33;;;-1.00;99.90;;;;;;2081246;28;20176;-69
2021/01/04 00:26:54;;;;;;;33.00;18.23;;;-1.00;99.90;;;;;;2076217;28;20191;-67
2021/01/04 00:28:04;;;;;;;38.08;20.92;;;-1.10;99.90;;;;;;2081061;28;20165;-69
2021/01/04 00:29:05;;;;;;;41.38;21.48;;;-1.10;99.90;;;;;;2080912;28;20652;-68
2021/01/04 00:30:24;;;;;;;40.47;21.52;;;-1.00;99.90;;;;;;2070906;28;20257;-69
2021/01/04 00:31:33;;;;;;;43.50;21.00;;;-1.00;99.90;;;;;;2072745;28;20176;-67
2021/01/04 00:32:36;;;;;;;31.90;19.35;;;-1.10;99.90;;;;;;2073239;28;20604;-69
2021/01/04 00:33:42;;;;;;;40.38;21.38;;;-1.10;99.90;;;;;;2073074;28;20632;-68
2021/01/04 00:34:51;;;;;;;39.47;21.95;;;-1.10;99.90;;;;;;2072602;28;20571;-68
2021/01/04 00:36:15;;;;;;;38.22;21.55;;;-1.10;99.90;;;;;;2074986;28;20177;-68
2021/01/04 00:37:29;;;;;;;44.88;21.75;;;-1.10;99.90;;;;;;2081023;28;20175;-68
2021/01/04 00:39:00;;;;;;;46.60;24.45;;;-1.00;99.90;;;;;;2081245;28;20597;-70
2021/01/04 00:40:35;;;;;;;52.53;24.27;;;-0.90;99.90;;;;;;2081391;28;20169;-68
2021/01/04 00:41:53;;;;;;;42.63;22.50;;;-0.90;99.90;;;;;;2080326;28;20219;-68
2021/01/04 00:42:55;;;;;;;41.97;20.52;;;-1.10;99.90;;;;;;2074748;28;20656;-68
2021/01/04 00:43:57;;;;;;;42.67;23.05;;;-1.00;99.90;;;;;;2072675;28;20182;-68
2021/01/04 00:45:17;;;;;;;40.45;22.08;;;-1.10;99.90;;;;;;2072623;28;20176;-68
2021/01/04 00:46:43;;;;;;;44.45;22.45;;;-1.10;99.90;;;;;;2074825;28;20201;-69
2021/01/04 00:48:20;;;;;;;43.78;22.60;;;-1.10;99.90;;;;;;2076230;28;20178;-68
2021/01/04 00:49:28;;;;;;;40.78;21.48;;;-1.10;99.90;;;;;;2077650;28;20207;-69
2021/01/04 00:50:51;;;;;;;42.67;22.75;;;-1.00;99.90;;;;;;2074031;28;20174;-69
2021/01/04 00:52:13;;;;;;;37.95;20.65;;;-1.00;99.90;;;;;;2081450;28;20244;-69
2021/01/04 00:53:44;;;;;;;46.85;23.67;;;-1.00;99.90;;;;;;2081116;28;20666;-69
2021/01/04 00:54:51;;;;;;;41.60;22.15;;;-1.00;99.90;;;;;;2076976;28;20204;-69
2021/01/04 00:56:45;;;;;;;46.70;25.02;;;-1.00;99.90;;;;;;2081188;28;20270;-68
2021/01/04 00:58:25;;;;;;;42.60;21.77;;;-1.00;99.90;;;;;;2072671;28;20189;-69
2021/01/04 01:00:11;;;;;;;38.92;22.10;;;-1.00;99.90;;;;;;2078380;28;20199;-68
2021/01/04 01:01:19;;;;;;;39.75;21.42;;;-1.00;99.90;;;;;;2080851;28;20616;-69
2021/01/04 01:02:46;;;;;;;43.97;23.42;;;-1.00;99.90;;;;;;2074007;28;20265;-69
2021/01/04 01:04:09;;;;;;;46.15;23.65;;;-1.00;99.90;;;;;;2084544;28;20183;-69
2021/01/04 01:05:41;;;;;;;46.25;22.33;;;-1.10;99.90;;;;;;2089053;28;20171;-69
2021/01/04 01:06:57;;;;;;;41.72;21.73;;;-1.10;99.90;;;;;;2080958;28;20191;-69
2021/01/04 01:08:19;;;;;;;38.53;21.05;;;-1.00;99.90;;;;;;2081288;28;20289;-69
2021/01/04 01:09:20;;;;;;;44.80;23.75;;;-1.00;99.90;;;;;;2081648;28;20209;-69
2021/01/04 01:10:25;;;;;;;41.87;21.10;;;-1.00;99.90;;;;;;2081373;28;20288;-69
2021/01/04 01:12:06;;;;;;;46.85;24.20;;;-1.00;99.90;;;;;;2080731;28;20419;-68
2021/01/04 01:14:08;;;;;;;45.08;23.02;;;-0.90;99.90;;;;;;2086469;28;20575;-69
2021/01/04 01:15:31;;;;;;;43.28;21.83;;;-1.00;99.90;;;;;;2081559;28;20216;-69
2021/01/04 01:16:38;;;;;;;42.38;22.00;;;-0.90;99.90;;;;;;2080896;28;20207;-68
2021/01/04 01:18:09;;;;;;;53.58;26.85;;;-0.90;99.90;;;;;;2080993;28;20539;-69
2021/01/04 01:19:54;;;;;;;51.60;25.70;;;-1.00;99.90;;;;;;2081586;28;20709;-69
2021/01/04 01:20:57;;;;;;;54.33;25.60;;;-1.10;99.90;;;;;;2047705;29;20658;-69
2021/01/04 01:21:58;;;;;;;46.35;23.65;;;-1.20;99.90;;;;;;2040321;29;20200;-68
2021/01/04 01:22:59;;;;;;;42.42;23.17;;;-1.20;99.90;;;;;;2048231;28;20568;-69
2021/01/04 01:24:01;;;;;;;52.37;25.03;;;-1.10;99.90;;;;;;2039834;29;20233;-68
2021/01/04 01:25:18;;;;;;;44.80;25.35;;;-1.10;99.90;;;;;;2040452;28;20498;-68
2021/01/04 01:27:08;;;;;;;42.00;23.45;;;-1.10;99.90;;;;;;2064054;28;20275;-68
2021/01/04 01:28:58;;;;;;;38.55;21.40;;;-1.00;99.90;;;;;;2079337;28;20191;-69
2021/01/04 01:30:22;;;;;;;34.78;18.60;;;-1.00;99.90;;;;;;2081452;28;20714;-69
2021/01/04 01:32:00;;;;;;;37.50;21.73;;;-1.10;99.90;;;;;;2080756;28;20698;-69
2021/01/04 01:34:12;;;;;;;40.97;22.02;;;-1.10;99.90;;;;;;2081277;28;20164;-69
2021/01/04 01:35:41;;;;;;;34.50;18.45;;;-1.00;99.90;;;;;;2048082;29;20805;-69
2021/01/04 01:37:10;;;;;;;39.50;20.08;;;-1.00;99.90;;;;;;2080829;28;20212;-69
2021/01/04 01:38:48;;;;;;;42.25;23.15;;;-1.00;99.90;;;;;;2081539;28;20178;-69
2021/01/04 01:40:27;;;;;;;41.00;21.15;;;-1.00;99.90;;;;;;2080359;28;20192;-69
2021/01/04 01:41:42;;;;;;;39.13;20.88;;;-1.00;99.90;;;;;;2055924;28;20347;-68
2021/01/04 01:42:54;;;;;;;41.97;22.52;;;-1.00;99.90;;;;;;2072465;28;20210;-69
2021/01/04 01:44:19;;;;;;;37.10;20.83;;;-1.10;99.90;;;;;;2074538;28;20169;-69
2021/01/04 01:45:51;;;;;;;39.30;21.35;;;-1.10;99.90;;;;;;2081440;28;20177;-69
2021/01/04 01:47:32;;;;;;;46.75;23.35;;;-1.10;99.90;;;;;;2081400;28;20184;-69
2021/01/04 01:48:49;;;;;;;38.42;19.92;;;-1.10;99.90;;;;;;2072338;28;20182;-69
2021/01/04 01:50:06;;;;;;;44.47;21.63;;;-1.10;99.90;;;;;;2074996;28;20313;-68
2021/01/04 01:51:27;;;;;;;41.33;22.75;;;-1.00;99.90;;;;;;2080453;28;20270;-69
2021/01/04 01:52:41;;;;;;;39.15;21.80;;;-1.00;99.90;;;;;;2075167;28;20268;-69
2021/01/04 01:54:41;;;;;;;40.60;21.52;;;-1.00;99.90;;;;;;2080820;28;20246;-69
2021/01/04 01:56:08;;;;;;;38.03;20.33;;;-1.00;99.90;;;;;;2051771;28;20236;-69
2021/01/04 01:57:36;;;;;;;39.85;21.10;;;-1.00;99.90;;;;;;2073328;28;20200;-69
2021/01/04 01:58:44;;;;;;;43.47;23.40;;;-1.20;99.90;;;;;;2081314;28;20259;-69
2021/01/04 02:00:47;;;;;;;47.50;24.38;;;-1.30;99.90;;;;;;2081090;28;20188;-68
2021/01/04 02:02:16;;;;;;;43.17;21.65;;;-1.20;99.90;;;;;;2073139;28;20793;-69
2021/01/04 02:03:38;;;;;;;35.70;19.88;;;-1.30;99.90;;;;;;2072439;28;20263;-69
2021/01/04 02:04:55;;;;;;;45.08;22.05;;;-1.20;99.90;;;;;;2077948;28;20245;-69
2021/01/04 02:06:22;;;;;;;42.70;22.63;;;-1.10;99.90;;;;;;2080628;28;20179;-69
2021/01/04 02:07:48;;;;;;;41.00;21.15;;;-1.10;99.90;;;;;;2055765;28;20296;-68
2021/01/04 02:09:08;;;;;;;41.92;22.00;;;-1.10;99.90;;;;;;2080512;28;20188;-69
2021/01/04 02:10:33;;;;;;;40.92;23.15;;;-1.20;99.90;;;;;;2074521;28;20166;-69
2021/01/04 02:12:29;;;;;;;43.25;21.50;;;-1.20;99.90;;;;;;2075448;28;20167;-69
2021/01/04 02:13:55;;;;;;;37.92;20.35;;;-1.20;99.90;;;;;;2081186;28;20176;-69
2021/01/04 02:15:12;;;;;;;43.75;20.95;;;-1.10;99.90;;;;;;2080461;28;20223;-69
2021/01/04 02:16:23;;;;;;;44.83;22.52;;;-1.10;99.90;;;;;;2082716;28;20172;-69
2021/01/04 02:18:06;;;;;;;44.40;23.23;;;-1.10;99.90;;;;;;2088796;28;20648;-68
2021/01/04 02:20:01;;;;;;;38.45;21.15;;;-1.10;99.90;;;;;;2083329;28;20267;-69
2021/01/04 02:21:57;;;;;;;39.60;20.23;;;-1.10;99.90;;;;;;2075097;28;20591;-69
2021/01/04 02:23:28;;;;;;;37.08;20.40;;;-1.10;99.90;;;;;;2079673;28;20195;-73
2021/01/04 02:24:29;;;;;;;38.30;21.33;;;-1.10;99.90;;;;;;2080631;28;20244;-69
2021/01/04 02:25:33;;;;;;;43.25;21.65;;;-1.10;99.90;;;;;;2080527;28;20213;-70
2021/01/04 02:26:37;;;;;;;46.30;23.77;;;-1.10;99.90;;;;;;2072587;28;20225;-69
2021/01/04 02:27:44;;;;;;;41.60;23.02;;;-1.10;99.90;;;;;;2080522;28;20192;-69
2021/01/04 02:29:18;;;;;;;42.17;22.77;;;-1.10;99.90;;;;;;2080223;28;20192;-69
2021/01/04 02:30:19;;;;;;;40.90;21.70;;;-1.10;99.90;;;;;;2076639;28;20192;-69
2021/01/04 02:31:20;;;;;;;40.22;22.90;;;-1.10;99.90;;;;;;2071962;28;20181;-68
2021/01/04 02:32:21;;;;;;;41.67;23.20;;;-1.10;99.90;;;;;;2080343;28;20200;-69
2021/01/04 02:33:22;;;;;;;43.50;23.13;;;-1.10;99.90;;;;;;2077748;28;20678;-69
2021/01/04 02:34:54;;;;;;;43.30;23.73;;;-1.10;99.90;;;;;;2080424;28;20238;-69
2021/01/04 02:35:55;;;;;;;42.55;23.38;;;-1.10;99.90;;;;;;2083335;28;20222;-69
2021/01/04 02:36:58;;;;;;;40.40;21.87;;;-1.20;99.90;;;;;;2080198;28;20215;-69
2021/01/04 02:37:58;;;;;;;38.17;22.33;;;-1.20;99.90;;;;;;2080336;28;20195;-69
2021/01/04 02:39:21;;;;;;;41.63;23.40;;;-1.10;99.90;;;;;;2080745;28;20200;-68
2021/01/04 02:40:21;;;;;;;39.55;22.65;;;-1.10;99.90;;;;;;2081093;28;20195;-69
2021/01/04 02:41:22;;;;;;;42.23;22.60;;;-1.10;99.90;;;;;;2079906;28;20195;-69
2021/01/04 02:42:46;;;;;;;40.93;22.37;;;-1.10;99.90;;;;;;2072130;28;20177;-69
2021/01/04 02:43:47;;;;;;;42.72;23.77;;;-1.10;99.90;;;;;;2075123;28;20206;-69
2021/01/04 02:44:49;;;;;;;38.67;22.57;;;-1.10;99.90;;;;;;2080271;28;20271;-69
2021/01/04 02:45:49;;;;;;;41.25;23.60;;;-1.10;99.90;;;;;;2080853;28;20176;-69
2021/01/04 02:47:34;;;;;;;41.23;24.47;;;-1.10;99.90;;;;;;2071965;28;20193;-69
2021/01/04 02:48:51;;;;;;;32.65;19.55;;;-1.10;99.90;;;;;;2078123;28;20320;-69
2021/01/04 02:50:07;;;;;;;36.22;20.58;;;-1.10;99.90;;;;;;2080152;28;20608;-69
2021/01/04 02:51:26;;;;;;;37.85;21.65;;;-1.10;99.90;;;;;;2080264;28;20171;-68
2021/01/04 02:53:03;;;;;;;42.08;23.70;;;-1.10;99.90;;;;;;2080214;28;20180;-69
2021/01/04 02:54:27;;;;;;;39.85;21.05;;;-1.20;99.90;;;;;;2080231;28;20196;-70
2021/01/04 02:55:55;;;;;;;43.70;23.05;;;-1.20;99.90;;;;;;2080678;28;20192;-69
2021/01/04 02:57:07;;;;;;;39.13;21.30;;;-1.20;99.90;;;;;;2081160;28;20226;-69
2021/01/04 02:58:25;;;;;;;42.42;22.88;;;-1.20;99.90;;;;;;2074624;28;20180;-69
2021/01/04 02:59:43;;;;;;;41.40;22.50;;;-1.20;99.90;;;;;;2075130;28;20213;-69
2021/01/04 03:00:56;;;;;;;42.55;22.70;;;-1.30;99.90;;;;;;2083350;28;20172;-69
2021/01/04 03:02:09;;;;;;;39.22;22.40;;;-1.30;99.90;;;;;;2078483;28;20515;-69
2021/01/04 03:03:10;;;;;;;37.47;21.55;;;-1.20;99.90;;;;;;2073862;28;20721;-69
2021/01/04 03:04:14;;;;;;;41.23;23.03;;;-1.20;99.90;;;;;;2079930;28;20212;-69
2021/01/04 03:05:21;;;;;;;40.72;23.48;;;-1.20;99.90;;;;;;2080624;28;20185;-69
2021/01/04 03:07:00;;;;;;;40.08;22.15;;;-1.20;99.90;;;;;;2080187;28;20160;-69
2021/01/04 03:08:02;;;;;;;35.58;20.85;;;-1.10;99.90;;;;;;2081303;28;20238;-69
2021/01/04 03:09:09;;;;;;;36.92;21.95;;;-1.20;99.90;;;;;;2080872;28;20235;-69
2021/01/04 03:10:29;;;;;;;38.53;23.80;;;-1.20;99.90;;;;;;2073642;28;20166;-69
2021/01/04 03:11:30;;;;;;;34.05;20.15;;;-1.20;99.90;;;;;;2082761;28;20162;-68
2021/01/04 03:12:36;;;;;;;38.63;21.87;;;-1.20;99.90;;;;;;2088277;28;20697;-69
2021/01/04 03:14:30;;;;;;;40.25;23.15;;;-1.20;99.90;;;;;;2080159;28;20226;-69
2021/01/04 03:16:21;;;;;;;36.33;20.13;;;-1.20;99.90;;;;;;2054994;28;20595;-69
2021/01/04 03:18:10;;;;;;;36.95;20.48;;;-1.20;99.90;;;;;;2080147;28;20200;-69
2021/01/04 03:19:17;;;;;;;41.47;20.85;;;-1.20;99.90;;;;;;2078232;28;20281;-69
2021/01/04 03:20:21;;;;;;;34.88;20.92;;;-1.20;99.90;;;;;;2088339;28;20207;-69
2021/01/04 03:21:25;;;;;;;37.25;21.92;;;-1.20;99.90;;;;;;2079601;28;20180;-69
2021/01/04 03:22:26;;;;;;;38.85;22.67;;;-1.20;99.90;;;;;;2080202;28;20252;-69
2021/01/04 03:23:26;;;;;;;37.13;21.90;;;-1.20;99.90;;;;;;2079902;28;20193;-69
2021/01/04 03:24:27;;;;;;;40.87;23.60;;;-1.20;99.90;;;;;;2080131;28;20203;-69
2021/01/04 03:25:28;;;;;;;39.57;22.93;;;-1.20;99.90;;;;;;2080207;28;20179;-69
2021/01/04 03:26:44;;;;;;;38.97;22.10;;;-1.20;99.90;;;;;;2079979;28;20181;-69
2021/01/04 03:27:45;;;;;;;43.13;24.17;;;-1.20;99.90;;;;;;2080132;28;20176;-69
2021/01/04 03:28:47;;;;;;;38.17;22.42;;;-1.20;99.90;;;;;;2071833;28;20182;-69
2021/01/04 03:29:47;;;;;;;39.20;22.75;;;-1.10;99.90;;;;;;2080171;28;20193;-69
2021/01/04 03:30:48;;;;;;;42.60;23.93;;;-1.10;99.90;;;;;;2079904;28;20302;-69
2021/01/04 03:31:49;;;;;;;45.33;24.87;;;-1.20;99.90;;;;;;2079782;28;20181;-69
2021/01/04 03:32:50;;;;;;;38.60;23.03;;;-1.10;99.90;;;;;;2080020;28;20185;-69
2021/01/04 03:33:50;;;;;;;42.97;24.53;;;-1.20;99.90;;;;;;2080113;28;20219;-69
2021/01/04 03:34:51;;;;;;;41.40;23.63;;;-1.10;99.90;;;;;;2079960;28;20694;-69
2021/01/04 03:35:53;;;;;;;42.17;23.10;;;-1.10;99.90;;;;;;2080121;28;20202;-69
2021/01/04 03:36:54;;;;;;;39.63;22.02;;;-1.10;99.90;;;;;;2080058;28;20675;-69
2021/01/04 03:37:54;;;;;;;42.33;23.37;;;-1.10;99.90;;;;;;2080068;28;20181;-69
2021/01/04 03:38:55;;;;;;;41.37;24.10;;;-1.10;99.90;;;;;;2080769;28;20193;-69
2021/01/04 03:39:56;;;;;;;41.33;22.97;;;-1.10;99.90;;;;;;2080700;28;20217;-69
2021/01/04 03:40:56;;;;;;;42.73;24.47;;;-1.10;99.90;;;;;;2080567;28;20192;-69
2021/01/04 03:41:59;;;;;;;38.83;23.43;;;-1.10;99.90;;;;;;2080685;28;20187;-69
2021/01/04 03:43:00;;;;;;;41.95;23.38;;;-1.10;99.90;;;;;;2079993;28;20311;-69
2021/01/04 03:44:00;;;;;;;41.07;23.37;;;-1.10;99.90;;;;;;2079985;28;20318;-69
2021/01/04 03:45:03;;;;;;;39.33;22.50;;;-1.10;99.90;;;;;;2080205;28;20203;-69
2021/01/04 03:46:04;;;;;;;38.35;21.85;;;-1.10;99.90;;;;;;2072026;28;20193;-69
2021/01/04 03:47:05;;;;;;;35.77;21.03;;;-1.10;99.90;;;;;;2081475;28;20327;-69
2021/01/04 03:48:06;;;;;;;41.13;24.20;;;-1.10;99.90;;;;;;2081415;28;20274;-69
2021/01/04 03:49:06;;;;;;;38.05;21.83;;;-1.10;99.90;;;;;;2081710;28;20893;-69
2021/01/04 03:50:09;;;;;;;38.23;23.03;;;-1.20;99.90;;;;;;2081456;28;20195;-69
2021/01/04 03:51:10;;;;;;;40.28;22.85;;;-1.20;99.90;;;;;;2073449;28;20327;-68
2021/01/04 03:52:10;;;;;;;40.67;23.93;;;-1.20;99.90;;;;;;2081620;28;20237;-69
2021/01/04 03:53:12;;;;;;;39.70;24.07;;;-1.20;99.90;;;;;;2082133;28;20176;-69
2021/01/04 03:54:12;;;;;;;37.17;22.17;;;-1.10;99.90;;;;;;2080754;28;20196;-69
2021/01/04 03:55:16;;;;;;;38.53;22.87;;;-1.10;99.90;;;;;;2081622;28;20200;-68
2021/01/04 03:56:18;;;;;;;36.55;21.88;;;-1.10;99.90;;;;;;2073620;28;20237;-69
2021/01/04 03:57:19;;;;;;;39.30;22.48;;;-1.10;99.90;;;;;;2081775;28;20181;-69
2021/01/04 03:58:20;;;;;;;37.27;22.03;;;-1.10;99.90;;;;;;2089693;28;20175;-69
2021/01/04 03:59:21;;;;;;;34.13;21.20;;;-1.10;99.90;;;;;;2081943;28;20199;-69
2021/01/04 04:00:23;;;;;;;38.72;21.67;;;-1.10;99.90;;;;;;2081453;28;20181;-69
2021/01/04 04:01:23;;;;;;;38.92;21.92;;;-1.00;99.90;;;;;;2073297;28;20187;-71
2021/01/04 04:02:24;;;;;;;36.67;21.87;;;-1.00;99.90;;;;;;2081525;28;20210;-69
2021/01/04 04:03:25;;;;;;;32.93;20.40;;;-1.10;99.90;;;;;;2082243;28;20287;-68
2021/01/04 04:04:26;;;;;;;37.20;21.90;;;-1.10;99.90;;;;;;2081287;28;20180;-69
2021/01/04 04:05:26;;;;;;;32.30;20.60;;;-1.10;99.90;;;;;;2065161;28;20559;-69
2021/01/04 04:06:27;;;;;;;33.10;20.10;;;-1.10;99.90;;;;;;2065135;28;20228;-69
2021/01/04 04:07:28;;;;;;;37.80;22.10;;;-1.00;99.90;;;;;;2073344;28;20188;-69
2021/01/04 04:08:28;;;;;;;37.03;21.53;;;-1.00;99.90;;;;;;2081477;28;20204;-69
2021/01/04 04:09:29;;;;;;;37.80;21.93;;;-1.00;99.90;;;;;;2082034;28;20333;-69
2021/01/04 04:10:30;;;;;;;36.00;21.97;;;-1.00;99.90;;;;;;2081330;28;20183;-69
2021/01/04 04:11:31;;;;;;;37.42;22.45;;;-1.00;99.90;;;;;;2073162;28;20268;-69
2021/01/04 04:12:31;;;;;;;37.23;21.97;;;-1.00;99.90;;;;;;2081458;28;20196;-69
2021/01/04 04:13:32;;;;;;;35.63;20.97;;;-1.00;99.90;;;;;;2082227;28;20185;-69
2021/01/04 04:14:33;;;;;;;35.67;22.03;;;-1.00;99.90;;;;;;2081898;28;20243;-69
2021/01/04 04:15:33;;;;;;;38.77;22.00;;;-1.00;99.90;;;;;;2082091;28;20187;-69
2021/01/04 04:16:34;;;;;;;32.80;19.60;;;-1.00;99.90;;;;;;2082019;28;20250;-69
2021/01/04 04:17:35;;;;;;;35.97;22.13;;;-1.00;99.90;;;;;;2082063;28;20176;-69
2021/01/04 04:18:37;;;;;;;34.97;20.87;;;-1.00;99.90;;;;;;2081341;28;20246;-69
2021/01/04 04:19:38;;;;;;;34.85;21.45;;;-1.00;99.90;;;;;;2081524;28;20204;-68
2021/01/04 04:20:39;;;;;;;37.93;21.77;;;-1.00;99.90;;;;;;2081925;28;20192;-69
2021/01/04 04:21:39;;;;;;;35.33;20.70;;;-1.00;99.90;;;;;;2081200;28;20211;-69
2021/01/04 04:22:40;;;;;;;39.83;22.07;;;-1.00;99.90;;;;;;2081244;28;20216;-69
2021/01/04 04:23:41;;;;;;;36.47;20.73;;;-1.00;99.90;;;;;;2081435;28;20177;-69
2021/01/04 04:24:44;;;;;;;35.10;21.00;;;-1.10;99.90;;;;;;2073032;28;20736;-69
2021/01/04 04:25:44;;;;;;;39.30;22.33;;;-1.10;99.90;;;;;;2081585;28;20427;-69
2021/01/04 04:26:45;;;;;;;36.40;21.90;;;-1.20;99.90;;;;;;2081441;28;20189;-69
2021/01/04 04:27:46;;;;;;;35.33;22.23;;;-1.20;99.90;;;;;;2081567;28;20192;-69
2021/01/04 04:28:47;;;;;;;37.55;21.25;;;-1.10;99.90;;;;;;2081125;28;20184;-69
2021/01/04 04:29:48;;;;;;;32.93;20.40;;;-1.10;99.90;;;;;;2081456;28;20180;-69
2021/01/04 04:30:49;;;;;;;33.93;21.50;;;-1.10;99.90;;;;;;2089425;28;20675;-69
2021/01/04 04:31:49;;;;;;;39.83;21.93;;;-1.10;99.90;;;;;;2081919;28;20713;-69
2021/01/04 04:32:58;;;;;;;33.00;19.97;;;-1.10;99.90;;;;;;2081934;28;20237;-69
2021/01/04 04:33:59;;;;;;;32.20;19.70;;;-1.20;99.90;;;;;;2082019;28;20219;-69
2021/01/04 04:35:00;;;;;;;35.10;20.43;;;-1.20;99.90;;;;;;2081957;28;20304;-69
2021/01/04 04:36:00;;;;;;;33.93;19.90;;;-1.20;99.90;;;;;;2081986;28;20376;-69
2021/01/04 04:37:01;;;;;;;36.80;21.77;;;-1.20;99.90;;;;;;2078414;28;20263;-69
2021/01/04 04:38:02;;;;;;;32.73;20.73;;;-1.10;99.90;;;;;;2081937;28;20204;-69
2021/01/04 04:39:03;;;;;;;33.20;19.67;;;-1.10;99.90;;;;;;2081840;28;21183;-69
2021/01/04 04:40:05;;;;;;;35.57;21.50;;;-1.10;99.90;;;;;;2081928;28;20314;-69
2021/01/04 04:41:07;;;;;;;33.00;20.23;;;-1.10;99.90;;;;;;2081024;28;20255;-69
2021/01/04 04:42:12;;;;;;;34.05;20.80;;;-1.10;99.90;;;;;;2081041;28;20189;-69
2021/01/04 04:43:37;;;;;;;32.53;19.73;;;-1.10;99.90;;;;;;2081138;28;20169;-69
2021/01/04 04:45:05;;;;;;;28.95;17.77;;;-1.00;99.90;;;;;;2076325;28;20561;-69
2021/01/04 04:46:55;;;;;;;31.13;18.70;;;-1.00;99.90;;;;;;2084929;28;20215;-69
2021/01/04 04:48:33;;;;;;;32.55;16.75;;;-1.00;99.90;;;;;;2083078;28;20716;-69
2021/01/04 04:49:33;;;;;;;33.03;18.25;;;-1.10;99.90;;;;;;2069353;28;20745;-69
2021/01/04 04:50:55;;;;;;;31.77;18.27;;;-1.10;99.90;;;;;;2081368;28;20245;-69
2021/01/04 04:52:46;;;;;;;37.63;21.30;;;-1.10;99.90;;;;;;2081860;28;20180;-69
2021/01/04 04:54:19;;;;;;;33.50;18.30;;;-1.10;99.90;;;;;;2081689;28;20184;-69
2021/01/04 04:55:55;;;;;;;32.75;17.83;;;-1.20;99.90;;;;;;2081726;28;20195;-69
2021/01/04 04:57:39;;;;;;;31.48;17.88;;;-1.30;99.90;;;;;;2081084;28;20746;-69
2021/01/04 04:58:46;;;;;;;34.63;19.15;;;-1.30;99.90;;;;;;2085676;28;20283;-70
2021/01/04 05:00:10;;;;;;;31.55;18.15;;;-1.20;99.90;;;;;;2088551;28;20260;-69
2021/01/04 05:01:18;;;;;;;30.63;17.48;;;-1.20;99.90;;;;;;2080919;28;20177;-69
2021/01/04 05:02:56;;;;;;;28.25;16.70;;;-1.20;99.90;;;;;;2081087;28;20247;-69
2021/01/04 05:04:18;;;;;;;32.45;18.55;;;-1.20;99.90;;;;;;2081693;28;20223;-69
2021/01/04 05:06:06;;;;;;;34.03;18.70;;;-1.30;99.90;;;;;;2081766;28;20175;-69
2021/01/04 05:07:55;;;;;;;33.22;18.33;;;-1.30;99.90;;;;;;2081580;28;20571;-69
2021/01/04 05:09:13;;;;;;;32.95;18.50;;;-1.20;99.90;;;;;;2077542;28;20234;-69
2021/01/04 05:10:28;;;;;;;37.42;19.52;;;-1.20;99.90;;;;;;2081102;28;20172;-69
2021/01/04 05:11:35;;;;;;;33.55;18.25;;;-1.20;99.90;;;;;;2081026;28;20178;-69
2021/01/04 05:12:46;;;;;;;32.15;18.50;;;-1.20;99.90;;;;;;2080946;28;20560;-69
2021/01/04 05:13:51;;;;;;;31.88;19.30;;;-1.20;99.90;;;;;;2074299;28;20169;-69
2021/01/04 05:15:17;;;;;;;33.58;19.10;;;-1.10;99.90;;;;;;2081275;28;20243;-69
2021/01/04 05:16:44;;;;;;;28.50;17.42;;;-1.10;99.90;;;;;;2085826;28;20631;-69
2021/01/04 05:18:35;;;;;;;30.40;18.02;;;-1.20;99.90;;;;;;2089342;28;20176;-70
2021/01/04 05:20:03;;;;;;;27.95;17.35;;;-1.20;99.90;;;;;;2082704;28;20195;-69
2021/01/04 05:22:19;;;;;;;28.75;16.73;;;-1.10;99.90;;;;;;2081351;28;20226;-69
2021/01/04 05:24:14;;;;;;;27.55;15.68;;;-1.10;99.90;;;;;;2056199;28;20217;-69
2021/01/04 05:25:40;;;;;;;30.08;15.85;;;-1.20;99.90;;;;;;2048120;29;20174;-69
2021/01/04 05:27:18;;;;;;;27.55;16.30;;;-1.20;99.90;;;;;;2051658;28;20170;-69
2021/01/04 05:28:54;;;;;;;29.92;17.02;;;-1.20;99.90;;;;;;2059062;28;20239;-70
2021/01/04 05:30:28;;;;;;;28.88;17.08;;;-1.10;99.90;;;;;;2080692;28;20180;-69
2021/01/04 05:32:25;;;;;;;29.20;17.25;;;-1.20;99.90;;;;;;2076988;28;20167;-69
2021/01/04 05:33:49;;;;;;;26.80;15.63;;;-1.20;99.90;;;;;;2077609;28;20269;-69
2021/01/04 05:34:55;;;;;;;28.85;15.30;;;-1.40;99.90;;;;;;2080813;28;20204;-69
2021/01/04 05:36:37;;;;;;;29.98;16.60;;;-1.30;99.90;;;;;;2073173;28;20665;-69
2021/01/04 05:37:47;;;;;;;27.10;15.50;;;-1.20;99.90;;;;;;2081186;28;20173;-69
2021/01/04 05:39:02;;;;;;;29.10;16.60;;;-1.20;99.90;;;;;;2081408;28;20255;-69
2021/01/04 05:40:06;;;;;;;24.83;16.30;;;-1.30;99.90;;;;;;2080731;28;20169;-69
2021/01/04 05:41:34;;;;;;;24.88;15.93;;;-1.20;99.90;;;;;;2080536;28;20206;-69
2021/01/04 05:42:50;;;;;;;23.60;14.43;;;-1.20;99.90;;;;;;2080703;28;20639;-69
2021/01/04 05:44:23;;;;;;;24.42;13.98;;;-1.20;99.90;;;;;;2074673;28;20164;-69
2021/01/04 05:45:57;;;;;;;21.58;12.90;;;-1.20;99.90;;;;;;2081081;28;20187;-69
2021/01/04 05:47:24;;;;;;;20.90;12.55;;;-1.10;99.90;;;;;;2080672;28;20780;-70
2021/01/04 05:48:43;;;;;;;21.25;12.40;;;-1.10;99.90;;;;;;2076098;28;20165;-69
2021/01/04 05:49:54;;;;;;;23.52;13.52;;;-1.10;99.90;;;;;;2082998;28;20176;-70
2021/01/04 05:50:57;;;;;;;23.50;14.02;;;-1.30;99.90;;;;;;2087961;28;20171;-69
2021/01/04 05:51:58;;;;;;;22.63;14.05;;;-1.30;99.90;;;;;;2080516;28;20193;-69
2021/01/04 05:52:59;;;;;;;26.33;15.98;;;-1.30;99.90;;;;;;2081179;28;20183;-69
2021/01/04 05:54:00;;;;;;;22.90;14.27;;;-1.30;99.90;;;;;;2081305;28;20655;-69
2021/01/04 05:55:01;;;;;;;20.03;13.20;;;-1.30;99.90;;;;;;2080535;28;20213;-69
2021/01/04 05:56:03;;;;;;;22.10;13.35;;;-1.30;99.90;;;;;;2072624;28;20178;-70
2021/01/04 05:57:16;;;;;;;22.73;13.98;;;-1.30;99.90;;;;;;2080591;28;20184;-70
2021/01/04 05:58:19;;;;;;;25.90;14.77;;;-1.30;99.90;;;;;;2081250;28;20171;-69
2021/01/04 05:59:20;;;;;;;21.60;13.65;;;-1.30;99.90;;;;;;2080701;28;20223;-69
2021/01/04 06:00:36;;;;;;;23.10;14.47;;;-1.30;99.90;;;;;;2080651;28;20572;-70
2021/01/04 06:01:40;;;;;;;21.73;13.73;;;-1.30;99.90;;;;;;2080507;28;20656;-70
2021/01/04 06:02:41;;;;;;;22.52;13.23;;;-1.30;99.90;;;;;;2080951;28;20196;-70
2021/01/04 06:03:42;;;;;;;20.23;13.03;;;-1.20;99.90;;;;;;2081452;28;20215;-69
2021/01/04 06:04:43;;;;;;;21.98;13.43;;;-1.20;99.90;;;;;;2072452;28;20268;-70
2021/01/04 06:05:44;;;;;;;20.40;13.40;;;-1.20;99.90;;;;;;2064611;28;20570;-69
2021/01/04 06:07:02;;;;;;;19.10;12.93;;;-1.20;99.90;;;;;;2080683;28;20177;-70
2021/01/04 06:08:04;;;;;;;21.02;12.45;;;-1.20;99.90;;;;;;2080857;28;20246;-70
2021/01/04 06:09:16;;;;;;;18.75;11.65;;;-1.20;99.90;;;;;;2080412;28;20224;-70
2021/01/04 06:10:28;;;;;;;20.55;13.02;;;-1.10;99.90;;;;;;2080657;28;20671;-72
2021/01/04 06:11:29;;;;;;;15.82;9.93;;;-1.10;99.90;;;;;;2080494;28;20176;-70
2021/01/04 06:12:36;;;;;;;14.53;9.93;;;-1.20;99.90;;;;;;2081192;28;20225;-69
2021/01/04 06:13:41;;;;;;;17.65;11.30;;;-1.20;99.90;;;;;;2080854;28;20188;-70
2021/01/04 06:14:42;;;;;;;14.40;10.05;;;-1.30;99.90;;;;;;2073078;28;20307;-70
2021/01/04 06:15:43;;;;;;;16.83;10.70;;;-1.20;99.90;;;;;;2080781;28;20184;-70
2021/01/04 06:16:46;;;;;;;17.87;11.83;;;-1.30;99.90;;;;;;2080805;28;20180;-70
2021/01/04 06:17:46;;;;;;;17.10;11.32;;;-1.20;99.90;;;;;;2072732;28;20250;-70
2021/01/04 06:18:55;;;;;;;17.27;10.70;;;-1.20;99.90;;;;;;2080844;28;20191;-71
2021/01/04 06:20:37;;;;;;;17.85;11.05;;;-1.20;99.90;;;;;;2080538;28;20169;-70
2021/01/04 06:22:12;;;;;;;17.60;10.35;;;-1.20;99.90;;;;;;2052986;28;20212;-70
2021/01/04 06:23:33;;;;;;;18.08;10.80;;;-1.10;99.90;;;;;;2073286;28;20195;-70
2021/01/04 06:24:38;;;;;;;17.33;10.85;;;-1.20;99.90;;;;;;2082957;28;20192;-69